sensor_id;sensor_type;location;lat;lon;timestamp;pressure;altitude;pressure_sealevel;temperature;humidity
63281;BME280;49406;51.044;3.766;2022-10-16T00:00:38;101062.00;;;13.50;95.49
63281;BME280;49406;51.044;3.766;2022-10-16T00:02:57;101053.92;;;13.50;95.58
63281;BME280;49406;51.044;3.766;2022-10-16T00:05:17;101054.80;;;13.49;95.48
63281;BME280;49406;51.044;3.766;2022-10-16T00:07:36;101058.30;;;13.39;95.96
63281;BME280;49406;51.044;3.766;2022-10-16T00:09:55;101061.11;;;13.27;97.08
63281;BME280;49406;51.044;3.766;2022-10-16T00:12:15;101064.45;;;13.30;96.83
63281;BME280;49406;51.044;3.766;2022-10-16T00:14:34;101061.83;;;13.30;96.97
63281;BME280;49406;51.044;3.766;2022-10-16T00:16:52;101063.05;;;13.27;97.52
63281;BME280;49406;51.044;3.766;2022-10-16T00:19:11;101054.75;;;13.14;98.20
63281;BME280;49406;51.044;3.766;2022-10-16T00:21:31;101051.40;;;13.07;98.62
63281;BME280;49406;51.044;3.766;2022-10-16T00:23:53;101051.23;;;13.11;98.88
63281;BME280;49406;51.044;3.766;2022-10-16T00:26:14;101052.65;;;13.11;99.11
63281;BME280;49406;51.044;3.766;2022-10-16T00:28:35;101056.14;;;13.09;98.67
63281;BME280;49406;51.044;3.766;2022-10-16T00:30:54;101052.80;;;13.00;99.59
63281;BME280;49406;51.044;3.766;2022-10-16T00:33:14;101049.44;;;12.89;99.69
63281;BME280;49406;51.044;3.766;2022-10-16T00:35:31;101056.30;;;12.94;99.86
63281;BME280;49406;51.044;3.766;2022-10-16T00:37:51;101056.81;;;12.93;99.50
63281;BME280;49406;51.044;3.766;2022-10-16T00:40:09;101053.48;;;12.89;99.77
63281;BME280;49406;51.044;3.766;2022-10-16T00:42:27;101055.20;;;12.77;100.00
63281;BME280;49406;51.044;3.766;2022-10-16T00:44:46;101053.23;;;12.66;100.00
63281;BME280;49406;51.044;3.766;2022-10-16T00:47:07;101055.70;;;12.74;100.00
63281;BME280;49406;51.044;3.766;2022-10-16T00:49:27;101062.58;;;12.78;100.00
63281;BME280;49406;51.044;3.766;2022-10-16T00:51:48;101067.67;;;12.78;100.00
63281;BME280;49406;51.044;3.766;2022-10-16T00:54:12;101063.64;;;12.77;100.00
63281;BME280;49406;51.044;3.766;2022-10-16T00:56:33;101062.55;;;12.71;100.00
63281;BME280;49406;51.044;3.766;2022-10-16T00:58:52;101060.24;;;12.60;100.00
63281;BME280;49406;51.044;3.766;2022-10-16T01:01:12;101067.80;;;12.69;100.00
63281;BME280;49406;51.044;3.766;2022-10-16T01:03:33;101065.19;;;12.73;100.00
63281;BME280;49406;51.044;3.766;2022-10-16T01:06:02;101063.11;;;12.79;100.00
63281;BME280;49406;51.044;3.766;2022-10-16T01:08:31;101075.58;;;12.83;100.00
63281;BME280;49406;51.044;3.766;2022-10-16T01:10:59;101075.73;;;12.78;100.00
63281;BME280;49406;51.044;3.766;2022-10-16T01:13:24;101063.42;;;12.72;100.00
63281;BME280;49406;51.044;3.766;2022-10-16T01:15:49;101056.98;;;12.81;100.00
63281;BME280;49406;51.044;3.766;2022-10-16T01:18:16;101054.70;;;12.84;100.00
63281;BME280;49406;51.044;3.766;2022-10-16T01:20:42;101060.66;;;12.86;100.00
63281;BME280;49406;51.044;3.766;2022-10-16T01:23:14;101070.84;;;12.89;100.00
63281;BME280;49406;51.044;3.766;2022-10-16T01:25:36;101074.15;;;12.77;100.00
63281;BME280;49406;51.044;3.766;2022-10-16T01:28:00;101067.51;;;12.83;100.00
63281;BME280;49406;51.044;3.766;2022-10-16T01:30:24;101067.33;;;12.89;100.00
63281;BME280;49406;51.044;3.766;2022-10-16T01:32:48;101075.05;;;12.91;100.00
63281;BME280;49406;51.044;3.766;2022-10-16T01:35:14;101074.34;;;12.92;100.00
63281;BME280;49406;51.044;3.766;2022-10-16T01:37:41;101073.31;;;12.91;100.00
63281;BME280;49406;51.044;3.766;2022-10-16T01:40:07;101069.08;;;12.79;100.00
63281;BME280;49406;51.044;3.766;2022-10-16T01:42:28;101066.27;;;12.85;100.00
63281;BME280;49406;51.044;3.766;2022-10-16T01:44:49;101063.46;;;12.90;100.00
63281;BME280;49406;51.044;3.766;2022-10-16T01:47:11;101059.43;;;12.90;100.00
63281;BME280;49406;51.044;3.766;2022-10-16T01:49:31;101062.77;;;12.92;100.00
63281;BME280;49406;51.044;3.766;2022-10-16T01:51:52;101062.98;;;12.94;100.00
63281;BME280;49406;51.044;3.766;2022-10-16T01:54:11;101064.56;;;12.97;100.00
63281;BME280;49406;51.044;3.766;2022-10-16T01:56:33;101056.11;;;12.91;100.00
63281;BME280;49406;51.044;3.766;2022-10-16T01:58:56;101056.27;;;12.82;100.00
63281;BME280;49406;51.044;3.766;2022-10-16T02:01:18;101065.05;;;12.87;100.00
63281;BME280;49406;51.044;3.766;2022-10-16T02:03:41;101067.85;;;12.91;100.00
63281;BME280;49406;51.044;3.766;2022-10-16T02:06:02;101072.42;;;12.92;100.00
63281;BME280;49406;51.044;3.766;2022-10-16T02:08:24;101067.16;;;12.86;100.00
63281;BME280;49406;51.044;3.766;2022-10-16T02:10:46;101064.52;;;12.81;100.00
63281;BME280;49406;51.044;3.766;2022-10-16T02:13:08;101060.32;;;12.92;100.00
63281;BME280;49406;51.044;3.766;2022-10-16T02:15:28;101063.33;;;12.96;100.00
63281;BME280;49406;51.044;3.766;2022-10-16T02:17:47;101057.70;;;12.97;100.00
63281;BME280;49406;51.044;3.766;2022-10-16T02:20:05;101057.36;;;12.96;100.00
63281;BME280;49406;51.044;3.766;2022-10-16T02:22:28;101055.23;;;12.94;100.00
63281;BME280;49406;51.044;3.766;2022-10-16T02:24:54;101052.41;;;12.84;100.00
63281;BME280;49406;51.044;3.766;2022-10-16T02:27:13;101063.65;;;12.91;100.00
63281;BME280;49406;51.044;3.766;2022-10-16T02:29:34;101062.27;;;12.96;100.00
63281;BME280;49406;51.044;3.766;2022-10-16T02:31:58;101063.86;;;12.96;100.00
63281;BME280;49406;51.044;3.766;2022-10-16T02:34:20;101064.03;;;12.97;100.00
63281;BME280;49406;51.044;3.766;2022-10-16T02:36:42;101067.02;;;12.98;100.00
63281;BME280;49406;51.044;3.766;2022-10-16T02:39:02;101067.19;;;13.00;100.00
63281;BME280;49406;51.044;3.766;2022-10-16T02:41:23;101074.01;;;12.90;100.00
63281;BME280;49406;51.044;3.766;2022-10-16T02:43:42;101079.61;;;12.83;100.00
63281;BME280;49406;51.044;3.766;2022-10-16T02:46:02;101087.86;;;12.91;100.00
63281;BME280;49406;51.044;3.766;2022-10-16T02:48:21;101091.58;;;12.94;100.00
63281;BME280;49406;51.044;3.766;2022-10-16T02:50:40;101094.22;;;12.97;100.00
63281;BME280;49406;51.044;3.766;2022-10-16T02:53:00;101090.70;;;12.98;100.00
63281;BME280;49406;51.044;3.766;2022-10-16T02:55:19;101091.55;;;12.89;100.00
63281;BME280;49406;51.044;3.766;2022-10-16T02:57:38;101087.86;;;12.86;100.00
63281;BME280;49406;51.044;3.766;2022-10-16T02:59:58;101096.32;;;12.94;100.00
63281;BME280;49406;51.044;3.766;2022-10-16T03:02:17;101095.96;;;12.94;100.00
63281;BME280;49406;51.044;3.766;2022-10-16T03:04:37;101096.84;;;12.94;100.00
63281;BME280;49406;51.044;3.766;2022-10-16T03:06:56;101115.97;;;12.96;100.00
63281;BME280;49406;51.044;3.766;2022-10-16T03:09:16;101125.80;;;12.96;100.00
63281;BME280;49406;51.044;3.766;2022-10-16T03:11:35;101127.52;;;12.89;100.00
63281;BME280;49406;51.044;3.766;2022-10-16T03:13:55;101132.58;;;12.78;100.00
63281;BME280;49406;51.044;3.766;2022-10-16T03:16:14;101133.11;;;12.83;100.00
63281;BME280;49406;51.044;3.766;2022-10-16T03:18:33;101133.83;;;12.85;100.00
63281;BME280;49406;51.044;3.766;2022-10-16T03:20:53;101133.65;;;12.84;100.00
63281;BME280;49406;51.044;3.766;2022-10-16T03:23:12;101130.83;;;12.81;100.00
63281;BME280;49406;51.044;3.766;2022-10-16T03:25:32;101132.36;;;12.71;100.00
63281;BME280;49406;51.044;3.766;2022-10-16T03:27:52;101129.42;;;12.78;100.00
63281;BME280;49406;51.044;3.766;2022-10-16T03:30:12;101130.48;;;12.81;100.00
63281;BME280;49406;51.044;3.766;2022-10-16T03:32:31;101124.52;;;12.82;100.00
63281;BME280;49406;51.044;3.766;2022-10-16T03:34:51;101129.42;;;12.80;100.00
63281;BME280;49406;51.044;3.766;2022-10-16T03:37:12;101132.71;;;12.68;100.00
63281;BME280;49406;51.044;3.766;2022-10-16T03:39:31;101141.09;;;12.60;100.00
63281;BME280;49406;51.044;3.766;2022-10-16T03:41:51;101146.74;;;12.67;100.00
63281;BME280;49406;51.044;3.766;2022-10-16T03:44:10;101150.25;;;12.69;100.00
63281;BME280;49406;51.044;3.766;2022-10-16T03:46:29;101150.44;;;12.70;100.00
63281;BME280;49406;51.044;3.766;2022-10-16T03:48:49;101148.15;;;12.69;100.00
63281;BME280;49406;51.044;3.766;2022-10-16T03:51:08;101145.61;;;12.53;100.00
63281;BME280;49406;51.044;3.766;2022-10-16T03:53:28;101142.46;;;12.54;100.00
63281;BME280;49406;51.044;3.766;2022-10-16T03:55:47;101144.80;;;12.61;100.00
63281;BME280;49406;51.044;3.766;2022-10-16T03:58:07;101148.48;;;12.63;100.00
63281;BME280;49406;51.044;3.766;2022-10-16T04:00:26;101151.48;;;12.64;100.00
63281;BME280;49406;51.044;3.766;2022-10-16T04:02:45;101152.70;;;12.64;100.00
63281;BME280;49406;51.044;3.766;2022-10-16T04:05:05;101151.42;;;12.57;100.00
63281;BME280;49406;51.044;3.766;2022-10-16T04:07:25;101154.91;;;12.53;100.00
63281;BME280;49406;51.044;3.766;2022-10-16T04:09:44;101156.73;;;12.62;100.00
63281;BME280;49406;51.044;3.766;2022-10-16T04:12:04;101160.42;;;12.64;100.00
63281;BME280;49406;51.044;3.766;2022-10-16T04:14:21;101159.89;;;12.66;100.00
63281;BME280;49406;51.044;3.766;2022-10-16T04:16:41;101163.40;;;12.67;100.00
63281;BME280;49406;51.044;3.766;2022-10-16T04:19:00;101163.94;;;12.68;100.00
63281;BME280;49406;51.044;3.766;2022-10-16T04:21:19;101166.02;;;12.63;100.00
63281;BME280;49406;51.044;3.766;2022-10-16T04:23:39;101172.63;;;12.52;100.00
63281;BME280;49406;51.044;3.766;2022-10-16T04:25:57;101175.80;;;12.59;100.00
63281;BME280;49406;51.044;3.766;2022-10-16T04:28:16;101180.90;;;12.59;100.00
63281;BME280;49406;51.044;3.766;2022-10-16T04:30:37;101183.52;;;12.57;100.00
63281;BME280;49406;51.044;3.766;2022-10-16T04:32:56;101185.61;;;12.57;100.00
63281;BME280;49406;51.044;3.766;2022-10-16T04:35:16;101184.91;;;12.57;100.00
63281;BME280;49406;51.044;3.766;2022-10-16T04:37:35;101187.89;;;12.55;100.00
63281;BME280;49406;51.044;3.766;2022-10-16T04:39:55;101190.27;;;12.42;100.00
63281;BME280;49406;51.044;3.766;2022-10-16T04:42:12;101190.48;;;12.44;100.00
63281;BME280;49406;51.044;3.766;2022-10-16T04:44:32;101189.98;;;12.49;100.00
63281;BME280;49406;51.044;3.766;2022-10-16T04:46:52;101198.23;;;12.50;100.00
63281;BME280;49406;51.044;3.766;2022-10-16T04:49:12;101192.25;;;12.50;100.00
63281;BME280;49406;51.044;3.766;2022-10-16T04:51:31;101196.48;;;12.53;100.00
63281;BME280;49406;51.044;3.766;2022-10-16T04:53:49;101197.35;;;12.51;100.00
63281;BME280;49406;51.044;3.766;2022-10-16T04:56:08;101198.49;;;12.40;100.00
63281;BME280;49406;51.044;3.766;2022-10-16T04:58:28;101204.15;;;12.44;100.00
63281;BME280;49406;51.044;3.766;2022-10-16T05:00:47;101203.28;;;12.45;100.00
63281;BME280;49406;51.044;3.766;2022-10-16T05:03:06;101206.61;;;12.45;100.00
63281;BME280;49406;51.044;3.766;2022-10-16T05:05:26;101205.73;;;12.45;100.00
63281;BME280;49406;51.044;3.766;2022-10-16T05:07:46;101207.83;;;12.45;100.00
63281;BME280;49406;51.044;3.766;2022-10-16T05:10:06;101215.65;;;12.33;100.00
63281;BME280;49406;51.044;3.766;2022-10-16T05:12:26;101221.81;;;12.38;100.00
63281;BME280;49406;51.044;3.766;2022-10-16T05:14:45;101223.42;;;12.44;100.00
63281;BME280;49406;51.044;3.766;2022-10-16T05:17:04;101230.30;;;12.48;100.00
63281;BME280;49406;51.044;3.766;2022-10-16T05:19:24;101234.18;;;12.53;100.00
63281;BME280;49406;51.044;3.766;2022-10-16T05:21:43;101236.83;;;12.57;100.00
63281;BME280;49406;51.044;3.766;2022-10-16T05:24:03;101237.05;;;12.61;100.00
63281;BME280;49406;51.044;3.766;2022-10-16T05:26:22;101236.13;;;12.56;100.00
63281;BME280;49406;51.044;3.766;2022-10-16T05:28:41;101237.92;;;12.61;100.00
63281;BME280;49406;51.044;3.766;2022-10-16T05:31:05;101246.59;;;12.73;100.00
63281;BME280;49406;51.044;3.766;2022-10-16T05:33:26;101251.55;;;12.81;100.00
63281;BME280;49406;51.044;3.766;2022-10-16T05:35:45;101259.48;;;12.88;100.00
63281;BME280;49406;51.044;3.766;2022-10-16T05:38:05;101264.45;;;12.98;100.00
63281;BME280;49406;51.044;3.766;2022-10-16T05:40:24;101268.50;;;13.04;100.00
63281;BME280;49406;51.044;3.766;2022-10-16T05:42:43;101274.83;;;13.06;100.00
63281;BME280;49406;51.044;3.766;2022-10-16T05:45:04;101277.98;;;13.01;100.00
63281;BME280;49406;51.044;3.766;2022-10-16T05:47:24;101285.23;;;13.10;100.00
63281;BME280;49406;51.044;3.766;2022-10-16T05:49:43;101286.83;;;13.15;100.00
63281;BME280;49406;51.044;3.766;2022-10-16T05:52:02;101290.54;;;13.17;100.00
63281;BME280;49406;51.044;3.766;2022-10-16T05:54:22;101293.67;;;13.16;100.00
63281;BME280;49406;51.044;3.766;2022-10-16T05:56:41;101295.79;;;13.16;100.00
63281;BME280;49406;51.044;3.766;2022-10-16T05:59:00;101298.94;;;13.12;100.00
63281;BME280;49406;51.044;3.766;2022-10-16T06:01:22;101303.26;;;13.02;100.00
63281;BME280;49406;51.044;3.766;2022-10-16T06:03:42;101298.78;;;12.88;100.00
63281;BME280;49406;51.044;3.766;2022-10-16T06:06:09;101300.02;;;12.90;100.00
63281;BME280;49406;51.044;3.766;2022-10-16T06:08:28;101303.52;;;12.89;100.00
63281;BME280;49406;51.044;3.766;2022-10-16T06:10:49;101304.04;;;12.86;100.00
63281;BME280;49406;51.044;3.766;2022-10-16T06:13:18;101308.77;;;12.83;100.00
63281;BME280;49406;51.044;3.766;2022-10-16T06:15:39;101311.38;;;12.80;100.00
63281;BME280;49406;51.044;3.766;2022-10-16T06:17:59;101313.73;;;12.64;100.00
63281;BME280;49406;51.044;3.766;2022-10-16T06:20:19;101312.67;;;12.63;100.00
63281;BME280;49406;51.044;3.766;2022-10-16T06:22:38;101315.66;;;12.67;100.00
63281;BME280;49406;51.044;3.766;2022-10-16T06:24:57;101317.95;;;12.66;100.00
63281;BME280;49406;51.044;3.766;2022-10-16T06:27:17;101323.20;;;12.65;100.00
63281;BME280;49406;51.044;3.766;2022-10-16T06:29:36;101329.84;;;12.63;100.00
63281;BME280;49406;51.044;3.766;2022-10-16T06:31:55;101327.98;;;12.50;100.00
63281;BME280;49406;51.044;3.766;2022-10-16T06:34:14;101330.85;;;12.57;100.00
63281;BME280;49406;51.044;3.766;2022-10-16T06:36:34;101335.84;;;12.66;100.00
63281;BME280;49406;51.044;3.766;2022-10-16T06:38:53;101338.48;;;12.70;100.00
63281;BME280;49406;51.044;3.766;2022-10-16T06:41:13;101343.41;;;12.73;100.00
63281;BME280;49406;51.044;3.766;2022-10-16T06:43:33;101347.71;;;12.83;100.00
63281;BME280;49406;51.044;3.766;2022-10-16T06:45:54;101347.85;;;13.06;100.00
63281;BME280;49406;51.044;3.766;2022-10-16T06:48:13;101352.64;;;13.41;100.00
63281;BME280;49406;51.044;3.766;2022-10-16T06:50:31;101357.02;;;13.78;100.00
63281;BME280;49406;51.044;3.766;2022-10-16T06:52:51;101359.20;;;14.03;100.00
63281;BME280;49406;51.044;3.766;2022-10-16T06:55:10;101371.00;;;14.12;100.00
63281;BME280;49406;51.044;3.766;2022-10-16T06:57:29;101372.23;;;14.21;100.00
63281;BME280;49406;51.044;3.766;2022-10-16T06:59:49;101370.87;;;14.43;99.20
63281;BME280;49406;51.044;3.766;2022-10-16T07:02:07;101375.48;;;14.59;97.95
63281;BME280;49406;51.044;3.766;2022-10-16T07:04:26;101380.23;;;14.66;97.04
63281;BME280;49406;51.044;3.766;2022-10-16T07:06:45;101383.40;;;14.66;97.32
63281;BME280;49406;51.044;3.766;2022-10-16T07:09:07;101385.33;;;14.77;95.99
63281;BME280;49406;51.044;3.766;2022-10-16T07:11:27;101396.05;;;14.96;95.41
63281;BME280;49406;51.044;3.766;2022-10-16T07:13:47;101397.45;;;15.05;94.51
63281;BME280;49406;51.044;3.766;2022-10-16T07:16:09;101405.36;;;15.04;94.28
63281;BME280;49406;51.044;3.766;2022-10-16T07:18:29;101406.41;;;15.19;93.49
63281;BME280;49406;51.044;3.766;2022-10-16T07:20:48;101403.92;;;15.23;92.83
63281;BME280;49406;51.044;3.766;2022-10-16T07:23:07;101404.83;;;15.09;93.67
63281;BME280;49406;51.044;3.766;2022-10-16T07:25:27;101414.36;;;14.94;93.55
63281;BME280;49406;51.044;3.766;2022-10-16T07:27:46;101416.64;;;14.89;93.49
63281;BME280;49406;51.044;3.766;2022-10-16T07:30:07;101418.41;;;14.78;93.72
63281;BME280;49406;51.044;3.766;2022-10-16T07:32:27;101427.20;;;14.55;94.63
63281;BME280;49406;51.044;3.766;2022-10-16T07:34:46;101433.29;;;14.39;95.14
63281;BME280;49406;51.044;3.766;2022-10-16T07:37:06;101438.04;;;14.32;95.51
63281;BME280;49406;51.044;3.766;2022-10-16T07:39:25;101445.39;;;14.25;96.19
63281;BME280;49406;51.044;3.766;2022-10-16T07:41:45;101451.55;;;14.23;96.46
63281;BME280;49406;51.044;3.766;2022-10-16T07:44:03;101454.31;;;14.08;97.29
63281;BME280;49406;51.044;3.766;2022-10-16T07:46:23;101462.23;;;14.10;97.76
63281;BME280;49406;51.044;3.766;2022-10-16T07:48:42;101464.39;;;14.20;97.62
63281;BME280;49406;51.044;3.766;2022-10-16T07:51:06;101468.80;;;14.27;97.27
63281;BME280;49406;51.044;3.766;2022-10-16T07:53:26;101470.91;;;14.28;97.38
63281;BME280;49406;51.044;3.766;2022-10-16T07:55:45;101467.38;;;14.20;97.61
63281;BME280;49406;51.044;3.766;2022-10-16T07:58:05;101475.81;;;14.24;97.03
63281;BME280;49406;51.044;3.766;2022-10-16T08:00:24;101478.13;;;14.28;96.89
63281;BME280;49406;51.044;3.766;2022-10-16T08:02:44;101484.11;;;14.28;97.27
63281;BME280;49406;51.044;3.766;2022-10-16T08:05:03;101479.16;;;14.22;97.54
63281;BME280;49406;51.044;3.766;2022-10-16T08:07:23;101487.46;;;14.34;97.00
63281;BME280;49406;51.044;3.766;2022-10-16T08:09:42;101492.44;;;14.44;96.83
63281;BME280;49406;51.044;3.766;2022-10-16T08:12:01;101496.70;;;14.48;96.82
63281;BME280;49406;51.044;3.766;2022-10-16T08:14:22;101494.17;;;14.43;96.58
63281;BME280;49406;51.044;3.766;2022-10-16T08:16:41;101495.82;;;14.55;95.79
63281;BME280;49406;51.044;3.766;2022-10-16T08:19:00;101497.09;;;14.66;95.10
63281;BME280;49406;51.044;3.766;2022-10-16T08:21:22;101495.67;;;14.73;94.80
63281;BME280;49406;51.044;3.766;2022-10-16T08:23:41;101496.91;;;14.70;95.19
63281;BME280;49406;51.044;3.766;2022-10-16T08:26:03;101493.77;;;14.80;94.57
63281;BME280;49406;51.044;3.766;2022-10-16T08:28:23;101499.56;;;14.91;94.29
63281;BME280;49406;51.044;3.766;2022-10-16T08:30:42;101502.23;;;14.95;94.14
63281;BME280;49406;51.044;3.766;2022-10-16T08:33:01;101501.50;;;14.91;94.30
63281;BME280;49406;51.044;3.766;2022-10-16T08:35:21;101501.52;;;15.07;93.53
63281;BME280;49406;51.044;3.766;2022-10-16T08:37:39;101506.62;;;15.29;92.43
63281;BME280;49406;51.044;3.766;2022-10-16T08:39:58;101511.19;;;15.61;91.33
63281;BME280;49406;51.044;3.766;2022-10-16T08:42:35;101516.23;;;15.91;90.13
63281;BME280;49406;51.044;3.766;2022-10-16T08:45:26;101516.06;;;16.34;88.56
63281;BME280;49406;51.044;3.766;2022-10-16T08:47:56;101521.94;;;16.57;86.82
63281;BME280;49406;51.044;3.766;2022-10-16T08:50:23;101523.76;;;16.83;86.60
63281;BME280;49406;51.044;3.766;2022-10-16T08:52:45;101523.55;;;17.12;86.19
63281;BME280;49406;51.044;3.766;2022-10-16T08:55:05;101522.42;;;17.20;84.78
63281;BME280;49406;51.044;3.766;2022-10-16T08:57:26;101524.48;;;17.27;84.46
63281;BME280;49406;51.044;3.766;2022-10-16T08:59:46;101527.39;;;17.38;81.94
63281;BME280;49406;51.044;3.766;2022-10-16T09:02:22;101523.52;;;17.35;81.67
63281;BME280;49406;51.044;3.766;2022-10-16T09:07:34;101523.23;;;17.28;83.50
63281;BME280;49406;51.044;3.766;2022-10-16T09:10:06;101524.58;;;17.54;81.74
63281;BME280;49406;51.044;3.766;2022-10-16T09:12:33;101525.40;;;17.81;81.14
63281;BME280;49406;51.044;3.766;2022-10-16T09:15:03;101529.63;;;17.99;80.61
63281;BME280;49406;51.044;3.766;2022-10-16T09:17:32;101532.05;;;18.18;79.08
63281;BME280;49406;51.044;3.766;2022-10-16T09:20:12;101537.20;;;18.31;78.16
63281;BME280;49406;51.044;3.766;2022-10-16T09:22:32;101539.60;;;18.50;77.23
63281;BME280;49406;51.044;3.766;2022-10-16T09:24:52;101540.34;;;18.61;75.89
63281;BME280;49406;51.044;3.766;2022-10-16T09:27:13;101546.77;;;18.72;76.11
63281;BME280;49406;51.044;3.766;2022-10-16T09:29:33;101551.51;;;18.87;75.57
63281;BME280;49406;51.044;3.766;2022-10-16T09:31:53;101554.63;;;19.04;75.67
63281;BME280;49406;51.044;3.766;2022-10-16T09:34:20;101554.04;;;19.29;75.42
63281;BME280;49406;51.044;3.766;2022-10-16T09:36:42;101553.60;;;19.44;72.62
63281;BME280;49406;51.044;3.766;2022-10-16T09:39:05;101551.61;;;19.46;72.68
63281;BME280;49406;51.044;3.766;2022-10-16T09:41:25;101550.65;;;19.63;72.31
63281;BME280;49406;51.044;3.766;2022-10-16T09:43:51;101550.98;;;19.74;70.33
63281;BME280;49406;51.044;3.766;2022-10-16T09:46:25;101553.45;;;19.75;69.32
63281;BME280;49406;51.044;3.766;2022-10-16T09:48:48;101556.54;;;19.80;69.84
63281;BME280;49406;51.044;3.766;2022-10-16T09:51:27;101561.81;;;19.73;68.87
63281;BME280;49406;51.044;3.766;2022-10-16T09:53:47;101561.60;;;19.55;68.85
63281;BME280;49406;51.044;3.766;2022-10-16T09:56:09;101565.61;;;19.16;69.67
63281;BME280;49406;51.044;3.766;2022-10-16T09:58:31;101573.88;;;18.84;71.40
63281;BME280;49406;51.044;3.766;2022-10-16T10:00:53;101573.23;;;18.91;71.35
63281;BME280;49406;51.044;3.766;2022-10-16T10:03:13;101568.62;;;19.05;70.80
63281;BME280;49406;51.044;3.766;2022-10-16T10:05:49;101571.02;;;19.21;70.48
63281;BME280;49406;51.044;3.766;2022-10-16T10:08:16;101571.44;;;19.38;70.96
63281;BME280;49406;51.044;3.766;2022-10-16T10:10:42;101566.58;;;19.43;69.43
63281;BME280;49406;51.044;3.766;2022-10-16T10:13:02;101564.21;;;19.36;70.48
63281;BME280;49406;51.044;3.766;2022-10-16T10:15:21;101561.52;;;19.47;70.44
63281;BME280;49406;51.044;3.766;2022-10-16T10:17:49;101562.74;;;19.61;70.02
63281;BME280;49406;51.044;3.766;2022-10-16T10:20:23;101563.39;;;19.65;69.17
63281;BME280;49406;51.044;3.766;2022-10-16T10:22:44;101569.57;;;19.67;68.35
63281;BME280;49406;51.044;3.766;2022-10-16T10:25:18;101573.40;;;19.89;69.17
63281;BME280;49406;51.044;3.766;2022-10-16T10:27:50;101575.45;;;19.94;67.70
63281;BME280;49406;51.044;3.766;2022-10-16T10:30:18;101579.81;;;19.78;68.75
63281;BME280;49406;51.044;3.766;2022-10-16T10:32:46;101576.70;;;19.64;69.02
63281;BME280;49406;51.044;3.766;2022-10-16T10:35:14;101579.50;;;19.56;68.53
63281;BME280;49406;51.044;3.766;2022-10-16T10:37:48;101583.32;;;19.38;68.55
63281;BME280;49406;51.044;3.766;2022-10-16T10:40:19;101582.48;;;19.24;68.50
63281;BME280;49406;51.044;3.766;2022-10-16T10:42:46;101584.40;;;19.15;69.57
63281;BME280;49406;51.044;3.766;2022-10-16T10:45:26;101584.08;;;19.13;69.37
63281;BME280;49406;51.044;3.766;2022-10-16T10:47:54;101584.96;;;19.02;68.34
63281;BME280;49406;51.044;3.766;2022-10-16T10:50:22;101586.11;;;18.94;69.64
63281;BME280;49406;51.044;3.766;2022-10-16T10:52:56;101585.67;;;18.89;69.97
63281;BME280;49406;51.044;3.766;2022-10-16T10:55:18;101584.15;;;18.85;69.53
63281;BME280;49406;51.044;3.766;2022-10-16T10:57:46;101581.81;;;18.87;70.29
63281;BME280;49406;51.044;3.766;2022-10-16T11:00:18;101581.64;;;18.86;69.80
63281;BME280;49406;51.044;3.766;2022-10-16T11:02:44;101581.63;;;18.87;69.96
63281;BME280;49406;51.044;3.766;2022-10-16T11:05:23;101583.66;;;18.93;70.41
63281;BME280;49406;51.044;3.766;2022-10-16T11:07:49;101581.95;;;19.02;68.74
63281;BME280;49406;51.044;3.766;2022-10-16T11:10:12;101584.91;;;19.05;68.11
63281;BME280;49406;51.044;3.766;2022-10-16T11:12:35;101578.61;;;19.11;68.06
63281;BME280;49406;51.044;3.766;2022-10-16T11:15:01;101581.16;;;19.07;67.65
63281;BME280;49406;51.044;3.766;2022-10-16T11:17:25;101580.19;;;19.02;68.06
63281;BME280;49406;51.044;3.766;2022-10-16T11:19:49;101582.17;;;18.99;68.20
63281;BME280;49406;51.044;3.766;2022-10-16T11:22:15;101585.90;;;18.98;67.40
63281;BME280;49406;51.044;3.766;2022-10-16T11:24:42;101577.36;;;19.01;67.52
63281;BME280;49406;51.044;3.766;2022-10-16T11:27:08;101578.44;;;19.10;68.20
63281;BME280;49406;51.044;3.766;2022-10-16T11:29:32;101588.57;;;19.21;68.81
63281;BME280;49406;51.044;3.766;2022-10-16T11:31:57;101593.45;;;19.25;68.35
63281;BME280;49406;51.044;3.766;2022-10-16T11:34:24;101596.92;;;19.20;67.97
63281;BME280;49406;51.044;3.766;2022-10-16T11:36:46;101597.55;;;19.12;66.58
63281;BME280;49406;51.044;3.766;2022-10-16T11:39:18;101594.27;;;19.07;66.78
63281;BME280;49406;51.044;3.766;2022-10-16T11:41:44;101591.24;;;19.08;66.60
63281;BME280;49406;51.044;3.766;2022-10-16T11:44:20;101582.77;;;19.06;65.88
63281;BME280;49406;51.044;3.766;2022-10-16T11:46:48;101583.80;;;18.96;66.65
63281;BME280;49406;51.044;3.766;2022-10-16T11:49:13;101587.84;;;18.87;67.93
63281;BME280;49406;51.044;3.766;2022-10-16T11:51:38;101585.06;;;18.83;68.00
63281;BME280;49406;51.044;3.766;2022-10-16T11:54:04;101579.75;;;18.83;67.42
63281;BME280;49406;51.044;3.766;2022-10-16T11:56:29;101570.81;;;18.88;66.86
63281;BME280;49406;51.044;3.766;2022-10-16T11:58:55;101571.33;;;18.88;65.98
63281;BME280;49406;51.044;3.766;2022-10-16T12:01:17;101572.91;;;18.90;65.87
63281;BME280;49406;51.044;3.766;2022-10-16T12:03:43;101567.02;;;18.92;65.48
63281;BME280;49406;51.044;3.766;2022-10-16T12:06:10;101568.04;;;18.96;65.27
63281;BME280;49406;51.044;3.766;2022-10-16T12:08:30;101575.05;;;19.02;65.73
63281;BME280;49406;51.044;3.766;2022-10-16T12:10:52;101576.02;;;19.07;66.15
63281;BME280;49406;51.044;3.766;2022-10-16T12:13:33;101581.74;;;19.04;64.81
63281;BME280;49406;51.044;3.766;2022-10-16T12:16:05;101585.98;;;19.05;65.92
63281;BME280;49406;51.044;3.766;2022-10-16T12:18:25;101588.84;;;19.14;65.14
63281;BME280;49406;51.044;3.766;2022-10-16T12:20:56;101588.92;;;19.21;65.46